createdAt,value
2019-03-03T00:01:16.537Z,11.80
2019-03-03T00:06:23.002Z,14.63
2019-03-03T00:11:31.166Z,11.83
2019-03-03T00:16:37.229Z,13.07
2019-03-03T00:21:43.463Z,11.30
2019-03-03T00:26:49.755Z,12.93
2019-03-03T00:31:56.155Z,14.53
2019-03-03T00:37:24.655Z,10.47
2019-03-03T00:42:48.700Z,12.23
2019-03-03T00:48:32.513Z,12.50
2019-03-03T00:53:56.633Z,13.83
2019-03-03T00:59:17.951Z,8.77
2019-03-03T01:04:41.899Z,9.97
2019-03-03T01:09:59.913Z,17.37
2019-03-03T01:15:34.750Z,15.80
2019-03-03T01:21:00.662Z,14.30
2019-03-03T01:26:07.058Z,20.00
2019-03-03T01:31:13.444Z,13.77
2019-03-03T01:36:19.734Z,14.57
2019-03-03T01:41:26.913Z,14.07
2019-03-03T01:46:37.942Z,12.90
2019-03-03T01:51:44.565Z,13.80
2019-03-03T01:56:50.778Z,14.30
2019-03-03T02:01:58.226Z,18.93
2019-03-03T02:07:04.734Z,10.17
2019-03-03T02:12:10.822Z,13.93
2019-03-03T02:17:17.228Z,15.70
2019-03-03T02:22:23.530Z,15.17
2019-03-03T02:27:29.662Z,16.27
2019-03-03T02:32:37.134Z,16.63
2019-03-03T02:37:43.183Z,17.47
2019-03-03T02:42:49.972Z,16.30
2019-03-03T02:47:57.685Z,11.90
2019-03-03T02:53:04.158Z,19.50
2019-03-03T02:58:11.955Z,14.90
2019-03-03T03:03:18.741Z,17.90
2019-03-03T03:08:32.583Z,17.63
2019-03-03T03:13:53.278Z,14.57
2019-03-03T03:19:24.411Z,19.33
2019-03-03T03:24:56.968Z,17.30
2019-03-03T03:30:20.434Z,21.40
2019-03-03T03:35:36.978Z,18.73
2019-03-03T03:40:52.942Z,20.07
2019-03-03T03:46:20.877Z,20.50
2019-03-03T03:51:49.300Z,19.53
2019-03-03T03:57:09.413Z,20.90
2019-03-03T04:02:35.576Z,14.80
2019-03-03T04:07:57.973Z,21.13
2019-03-03T04:13:13.756Z,16.63
2019-03-03T04:18:51.373Z,17.93
2019-03-03T04:24:22.624Z,21.30
2019-03-03T04:29:48.111Z,21.93
2019-03-03T04:35:19.483Z,20.33
2019-03-03T04:40:48.008Z,16.37
2019-03-03T04:46:24.146Z,17.20
2019-03-03T04:51:48.395Z,22.63
2019-03-03T04:57:13.638Z,17.97
2019-03-03T05:02:40.913Z,18.60
2019-03-03T05:07:54.605Z,19.43
2019-03-03T05:13:21.066Z,21.97
2019-03-03T05:18:46.236Z,17.83
2019-03-03T05:23:52.318Z,20.07
2019-03-03T05:28:58.494Z,20.27
2019-03-03T05:34:04.844Z,19.30
2019-03-03T05:39:11.179Z,19.27
2019-03-03T05:44:19.611Z,18.10
2019-03-03T05:49:26.193Z,18.80
2019-03-03T05:54:34.220Z,17.03
2019-03-03T05:59:42.233Z,16.53
2019-03-03T06:04:48.390Z,15.57
2019-03-03T06:09:54.509Z,13.70
2019-03-03T06:15:00.612Z,12.07
2019-03-03T06:20:07.865Z,15.97
2019-03-03T06:25:14.293Z,12.93
2019-03-03T06:30:20.837Z,11.10
2019-03-03T06:35:28.026Z,9.37
2019-03-03T06:40:34.215Z,14.97
2019-03-03T06:45:40.304Z,12.57
2019-03-03T06:50:46.853Z,12.83
2019-03-03T06:55:53.189Z,17.07
2019-03-03T07:00:59.345Z,18.27
2019-03-03T07:06:09.558Z,21.63
2019-03-03T07:11:15.697Z,17.90
2019-03-03T07:16:23.032Z,17.00
2019-03-03T07:21:29.357Z,16.20
2019-03-03T07:26:35.794Z,18.00
2019-03-03T07:31:44.196Z,22.10
2019-03-03T07:36:50.726Z,19.67
2019-03-03T07:41:57.034Z,14.97
2019-03-03T07:47:03.290Z,13.57
2019-03-03T07:52:09.528Z,16.23
2019-03-03T07:57:15.849Z,15.07
2019-03-03T08:02:22.013Z,14.67
2019-03-03T08:07:29.482Z,14.37
2019-03-03T08:12:37.338Z,13.17
2019-03-03T08:17:43.515Z,13.07
2019-03-03T08:22:51.426Z,12.63
2019-03-03T08:27:58.240Z,11.30
2019-03-03T08:33:04.363Z,10.60
2019-03-03T08:38:10.493Z,10.87
2019-03-03T08:43:25.632Z,15.20
2019-03-03T08:48:49.592Z,10.93
2019-03-03T08:54:06.013Z,11.90
2019-03-03T08:59:23.993Z,12.03
2019-03-03T09:04:58.440Z,13.47
2019-03-03T09:10:13.767Z,8.13
2019-03-03T09:15:40.246Z,9.20
2019-03-03T09:21:20.753Z,9.63
2019-03-03T09:26:45.793Z,6.73
2019-03-03T09:32:45.216Z,5.87
2019-03-03T09:38:19.100Z,8.70
2019-03-03T09:43:35.831Z,10.63
2019-03-03T09:48:53.104Z,11.50
2019-03-03T09:54:17.222Z,16.47
2019-03-03T09:59:32.497Z,9.87
2019-03-03T10:05:01.635Z,11.13
2019-03-03T10:10:30.457Z,8.07
2019-03-03T10:16:07.652Z,8.43
2019-03-03T10:21:23.921Z,6.57
2019-03-03T10:26:58.433Z,8.43
2019-03-03T10:32:22.835Z,8.07
2019-03-03T10:37:57.004Z,8.73
2019-03-03T10:43:20.770Z,11.57
2019-03-03T10:48:46.288Z,6.70
2019-03-03T10:54:20.434Z,7.70
2019-03-03T10:59:42.019Z,12.17
2019-03-03T11:05:10.262Z,16.03
2019-03-03T11:10:27.173Z,27.27
2019-03-03T11:15:48.596Z,10.10
2019-03-03T11:21:05.909Z,10.00
2019-03-03T11:26:28.554Z,10.30
2019-03-03T11:32:08.724Z,10.47
2019-03-03T11:37:36.387Z,10.77
2019-03-03T11:42:53.410Z,12.00
2019-03-03T11:48:21.742Z,13.93
2019-03-03T11:53:43.740Z,10.23
2019-03-03T11:59:01.760Z,13.03
2019-03-03T12:04:14.849Z,11.00
2019-03-03T12:09:39.067Z,18.40
2019-03-03T12:15:04.397Z,13.90
2019-03-03T12:20:43.641Z,23.30
2019-03-03T12:26:08.266Z,12.97
2019-03-03T12:31:23.337Z,14.00
2019-03-03T12:36:39.799Z,17.70
2019-03-03T12:41:57.190Z,15.90
2019-03-03T12:47:20.998Z,20.60
2019-03-03T12:52:45.288Z,15.90
2019-03-03T12:58:19.698Z,16.47
2019-03-03T13:03:35.739Z,17.30
2019-03-03T13:08:59.812Z,19.30
2019-03-03T13:14:21.198Z,15.80
2019-03-03T13:20:01.824Z,15.60
2019-03-03T13:25:23.419Z,14.43
2019-03-03T13:30:54.744Z,16.00
2019-03-03T13:36:23.962Z,12.27
2019-03-03T13:41:44.615Z,13.80
2019-03-03T13:46:50.581Z,15.87
2019-03-03T13:51:56.906Z,14.37
2019-03-03T13:57:03.494Z,11.87
2019-03-03T14:02:09.958Z,14.63
2019-03-03T14:07:16.266Z,17.10
2019-03-03T14:12:22.822Z,17.33
2019-03-03T14:35:46.727Z,14.10
2019-03-03T14:40:52.897Z,14.93
2019-03-03T14:45:59.161Z,15.77
2019-03-03T14:51:05.401Z,15.70
2019-03-03T14:56:11.626Z,14.10
2019-03-03T15:01:17.896Z,15.00
2019-03-03T15:06:24.787Z,12.53
2019-03-03T15:11:31.185Z,19.50
2019-03-03T15:16:37.483Z,15.17
2019-03-03T15:21:43.613Z,13.40
2019-03-03T15:26:49.941Z,18.03
2019-03-03T15:31:56.079Z,13.67
2019-03-03T15:37:03.888Z,15.57
2019-03-03T15:42:09.978Z,17.47
2019-03-03T15:47:16.132Z,13.43
2019-03-03T15:52:22.364Z,19.03
2019-03-03T15:57:29.416Z,16.07
2019-03-03T16:02:35.594Z,18.57
2019-03-03T16:07:41.927Z,17.53
2019-03-03T16:12:48.139Z,17.33
2019-03-03T16:17:54.824Z,17.47
2019-03-03T16:23:00.968Z,11.63
2019-03-03T16:28:07.226Z,16.23
2019-03-03T16:33:20.477Z,16.83
2019-03-03T16:38:21.319Z,17.80
2019-03-03T16:43:27.302Z,21.07
2019-03-03T16:48:33.471Z,15.33
2019-03-03T16:53:39.470Z,18.30
2019-03-03T16:58:45.603Z,12.80
2019-03-03T17:03:51.750Z,16.53
2019-03-03T17:08:58.071Z,16.17
2019-03-03T17:14:04.320Z,15.33
2019-03-03T17:19:14.735Z,16.00
2019-03-03T17:24:20.894Z,16.10
2019-03-03T17:29:27.216Z,18.10
2019-03-03T17:34:33.436Z,14.60
2019-03-03T17:39:40.099Z,12.50
2019-03-03T17:44:46.187Z,13.13
2019-03-03T17:49:52.385Z,16.27
2019-03-03T17:54:58.417Z,14.37
2019-03-03T18:00:07.374Z,13.07
2019-03-03T18:05:14.210Z,14.13
2019-03-03T18:10:21.940Z,16.80
2019-03-03T18:15:28.323Z,16.03
2019-03-03T18:20:34.694Z,17.63
2019-03-03T18:25:40.794Z,10.87
2019-03-03T18:30:47.103Z,13.27
2019-03-03T18:35:53.545Z,12.43
2019-03-03T18:40:59.639Z,12.73
2019-03-03T18:46:05.884Z,13.07
2019-03-03T18:51:12.550Z,8.73
2019-03-03T18:56:19.855Z,10.30
2019-03-03T19:01:26.102Z,13.13
2019-03-03T19:06:32.138Z,11.30
2019-03-03T19:11:38.233Z,11.90
2019-03-03T19:16:44.378Z,11.93
2019-03-03T19:21:50.508Z,11.60
2019-03-03T19:26:56.803Z,10.33
2019-03-03T19:32:02.995Z,12.07
2019-03-03T19:37:09.145Z,8.40
2019-03-03T19:42:15.261Z,7.67
2019-03-03T19:47:21.599Z,13.13
2019-03-03T19:52:29.419Z,9.27
2019-03-03T19:57:35.461Z,10.97
2019-03-03T20:02:41.816Z,9.33
2019-03-03T20:07:48.214Z,8.80
2019-03-03T20:12:54.510Z,8.73
2019-03-03T20:18:00.935Z,6.63
2019-03-03T20:23:07.565Z,11.30
2019-03-03T20:28:14.600Z,11.07
2019-03-03T20:33:21.227Z,7.43
2019-03-03T20:38:27.603Z,12.10
2019-03-03T20:43:33.765Z,7.23
2019-03-03T20:48:40.077Z,6.53
2019-03-03T20:53:46.493Z,10.27
2019-03-03T20:58:54.010Z,6.33
2019-03-03T21:04:01.197Z,7.00
2019-03-03T21:09:08.492Z,8.53
2019-03-03T21:14:16.422Z,6.53
2019-03-03T21:19:22.637Z,9.13
2019-03-03T21:24:28.743Z,6.57
2019-03-03T21:29:35.280Z,8.73
2019-03-03T21:34:43.184Z,7.13
2019-03-03T21:39:51.039Z,4.55
2019-03-03T21:44:57.290Z,6.43
2019-03-03T21:50:07.137Z,5.43
2019-03-03T21:55:14.086Z,5.33
2019-03-03T22:00:28.643Z,5.70
2019-03-03T22:05:34.916Z,7.50
2019-03-03T22:10:41.386Z,5.27
2019-03-03T22:15:47.574Z,6.10
2019-03-03T22:20:53.953Z,6.80
2019-03-03T22:26:00.348Z,4.90
2019-03-03T22:31:06.708Z,7.47
2019-03-03T22:41:39.411Z,5.63
2019-03-03T22:46:45.617Z,4.87
2019-03-03T22:51:52.020Z,5.80
2019-03-03T22:56:58.792Z,4.77
2019-03-03T23:02:06.018Z,4.00
2019-03-03T23:07:50.875Z,6.20
2019-03-03T23:13:03.639Z,6.83
2019-03-03T23:18:49.803Z,6.27
2019-03-03T23:24:13.699Z,5.57
2019-03-03T23:29:20.766Z,4.47
2019-03-03T23:34:27.468Z,7.37
2019-03-03T23:39:34.233Z,5.87
2019-03-03T23:44:40.775Z,7.00
2019-03-03T23:49:47.050Z,7.50
2019-03-03T23:54:53.365Z,4.03
2019-03-03T23:59:59.575Z,8.47
